Terminal Aerodrome Forecast
Issued by NWS Charleston, WV

Current Version | Previous Version | Graphics & Text | Print | Product List | Glossary On
Versions: 1 2 3 4 5 6 7 8 9 10 11 12 13 14 15 16 17 18 19 20 21 22 23 24 25 26 27 28 29 30 31 32 33
000
FTUS41 KRLX 311900 AAA
TAFCRW
TAF AMD
KCRW 311912Z 3119/0118 23008KT P6SM -RA BKN025 OVC060
      TEMPO 3119/3121 VRB10G20KT 2SM SHRA BKN015
     FM312200 22005KT 6SM -SHRA BR VCTS SCT011 OVC025CB
     FM010100 20006KT 5SM BR VCSH BKN010 OVC020
     FM010400 21006KT 4SM BR BKN006 OVC012
     FM010800 24002KT 1SM BR OVC014
     FM011000 22004KT 1/2SM FG BKN001=

USA.gov is the U.S. government's official web portal to all federal, state and local government web resources and services.